sensor_id;sensor_type;location;lat;lon;timestamp;pressure;altitude;pressure_sealevel;temperature;humidity
3102;BME280;1561;42.666;23.392;2023-09-18T00:01:09;95701.28;;;17.56;100.00
3102;BME280;1561;42.666;23.392;2023-09-18T00:03:36;95641.78;;;17.14;100.00
3102;BME280;1561;42.666;23.392;2023-09-18T00:06:07;95680.44;;;17.49;100.00
3102;BME280;1561;42.666;23.392;2023-09-18T00:08:36;95695.16;;;17.57;100.00
3102;BME280;1561;42.666;23.392;2023-09-18T00:11:11;95690.47;;;17.60;100.00
3102;BME280;1561;42.666;23.392;2023-09-18T00:13:40;95695.50;;;17.62;100.00
3102;BME280;1561;42.666;23.392;2023-09-18T00:16:08;95665.38;;;17.45;100.00
3102;BME280;1561;42.666;23.392;2023-09-18T00:18:41;95685.31;;;17.60;100.00
3102;BME280;1561;42.666;23.392;2023-09-18T00:21:18;95684.03;;;17.64;100.00
3102;BME280;1561;42.666;23.392;2023-09-18T00:23:49;95683.53;;;17.61;100.00
3102;BME280;1561;42.666;23.392;2023-09-18T00:26:17;95688.38;;;17.56;100.00
3102;BME280;1561;42.666;23.392;2023-09-18T00:28:46;95672.50;;;17.51;100.00
3102;BME280;1561;42.666;23.392;2023-09-18T00:31:18;95682.88;;;17.59;100.00
3102;BME280;1561;42.666;23.392;2023-09-18T00:33:46;95699.53;;;17.64;100.00
3102;BME280;1561;42.666;23.392;2023-09-18T00:36:24;95704.41;;;17.67;100.00
3102;BME280;1561;42.666;23.392;2023-09-18T00:38:50;95641.25;;;17.36;100.00
3102;BME280;1561;42.666;23.392;2023-09-18T00:41:22;95686.00;;;17.70;100.00
3102;BME280;1561;42.666;23.392;2023-09-18T00:43:56;95696.19;;;17.72;100.00
3102;BME280;1561;42.666;23.392;2023-09-18T00:46:23;95710.91;;;17.71;100.00
3102;BME280;1561;42.666;23.392;2023-09-18T00:48:52;95613.59;;;17.29;100.00
3102;BME280;1561;42.666;23.392;2023-09-18T00:51:25;95702.66;;;17.76;100.00
3102;BME280;1561;42.666;23.392;2023-09-18T00:53:53;95690.56;;;17.76;100.00
3102;BME280;1561;42.666;23.392;2023-09-18T00:56:24;95704.94;;;17.79;100.00
3102;BME280;1561;42.666;23.392;2023-09-18T00:58:53;95625.09;;;17.34;100.00
3102;BME280;1561;42.666;23.392;2023-09-18T01:01:21;95696.56;;;17.85;100.00
3102;BME280;1561;42.666;23.392;2023-09-18T01:03:49;95711.09;;;17.86;100.00
3102;BME280;1561;42.666;23.392;2023-09-18T01:06:18;95692.81;;;17.71;100.00
3102;BME280;1561;42.666;23.392;2023-09-18T01:08:48;95696.47;;;17.69;100.00
3102;BME280;1561;42.666;23.392;2023-09-18T01:11:25;95718.50;;;17.81;100.00
3102;BME280;1561;42.666;23.392;2023-09-18T01:14:03;95710.31;;;17.60;100.00
3102;BME280;1561;42.666;23.392;2023-09-18T01:16:36;95681.25;;;17.58;100.00
3102;BME280;1561;42.666;23.392;2023-09-18T01:19:06;95692.44;;;17.66;100.00
3102;BME280;1561;42.666;23.392;2023-09-18T01:21:35;95708.47;;;17.70;100.00
3102;BME280;1561;42.666;23.392;2023-09-18T01:24:06;95707.97;;;17.74;100.00
3102;BME280;1561;42.666;23.392;2023-09-18T01:26:34;95707.94;;;17.66;100.00
3102;BME280;1561;42.666;23.392;2023-09-18T01:29:01;95708.25;;;17.63;100.00
3102;BME280;1561;42.666;23.392;2023-09-18T01:31:34;95694.00;;;17.51;100.00
3102;BME280;1561;42.666;23.392;2023-09-18T01:34:01;95677.31;;;17.46;100.00
3102;BME280;1561;42.666;23.392;2023-09-18T01:36:29;95712.75;;;17.61;100.00
3102;BME280;1561;42.666;23.392;2023-09-18T01:39:00;95696.97;;;17.64;100.00
3102;BME280;1561;42.666;23.392;2023-09-18T01:41:30;95701.97;;;17.66;100.00
3102;BME280;1561;42.666;23.392;2023-09-18T01:43:59;95690.28;;;17.54;100.00
3102;BME280;1561;42.666;23.392;2023-09-18T01:46:26;95705.06;;;17.69;100.00
3102;BME280;1561;42.666;23.392;2023-09-18T01:49:03;95711.06;;;17.78;100.00
3102;BME280;1561;42.666;23.392;2023-09-18T01:51:38;95601.47;;;17.21;100.00
3102;BME280;1561;42.666;23.392;2023-09-18T01:54:07;95703.63;;;17.75;100.00
3102;BME280;1561;42.666;23.392;2023-09-18T01:56:39;95712.03;;;17.77;100.00
3102;BME280;1561;42.666;23.392;2023-09-18T01:59:06;95708.94;;;17.73;100.00
3102;BME280;1561;42.666;23.392;2023-09-18T02:01:33;95605.84;;;17.21;100.00
3102;BME280;1561;42.666;23.392;2023-09-18T02:04:04;95717.25;;;17.85;100.00
3102;BME280;1561;42.666;23.392;2023-09-18T02:06:37;95713.97;;;17.75;100.00
3102;BME280;1561;42.666;23.392;2023-09-18T02:09:07;95720.13;;;17.82;100.00
3102;BME280;1561;42.666;23.392;2023-09-18T02:11:41;95718.31;;;17.74;100.00
3102;BME280;1561;42.666;23.392;2023-09-18T02:14:12;95712.16;;;17.67;100.00
3102;BME280;1561;42.666;23.392;2023-09-18T02:16:40;95721.47;;;17.60;100.00
3102;BME280;1561;42.666;23.392;2023-09-18T02:19:09;95725.81;;;17.60;100.00
3102;BME280;1561;42.666;23.392;2023-09-18T02:21:37;95730.22;;;17.59;100.00
3102;BME280;1561;42.666;23.392;2023-09-18T02:24:07;95703.50;;;17.51;100.00
3102;BME280;1561;42.666;23.392;2023-09-18T02:26:39;95722.75;;;17.56;100.00
3102;BME280;1561;42.666;23.392;2023-09-18T02:29:09;95721.91;;;17.48;100.00
3102;BME280;1561;42.666;23.392;2023-09-18T02:31:39;95721.31;;;17.36;100.00
3102;BME280;1561;42.666;23.392;2023-09-18T02:34:12;95730.94;;;17.26;100.00
3102;BME280;1561;42.666;23.392;2023-09-18T02:36:41;95721.34;;;17.19;100.00
3102;BME280;1561;42.666;23.392;2023-09-18T02:39:08;95719.03;;;17.08;100.00
3102;BME280;1561;42.666;23.392;2023-09-18T02:41:43;95721.09;;;17.04;100.00
3102;BME280;1561;42.666;23.392;2023-09-18T02:44:15;95723.81;;;17.03;100.00
3102;BME280;1561;42.666;23.392;2023-09-18T02:46:43;95712.13;;;16.91;100.00
3102;BME280;1561;42.666;23.392;2023-09-18T02:49:10;95721.56;;;16.82;100.00
3102;BME280;1561;42.666;23.392;2023-09-18T02:51:38;95723.34;;;16.82;100.00
3102;BME280;1561;42.666;23.392;2023-09-18T02:54:05;95599.63;;;16.02;100.00
3102;BME280;1561;42.666;23.392;2023-09-18T02:56:34;95724.38;;;16.71;100.00
3102;BME280;1561;42.666;23.392;2023-09-18T02:59:03;95722.09;;;16.68;100.00
3102;BME280;1561;42.666;23.392;2023-09-18T03:01:35;95718.72;;;16.68;100.00
3102;BME280;1561;42.666;23.392;2023-09-18T03:04:05;95723.47;;;16.63;100.00
3102;BME280;1561;42.666;23.392;2023-09-18T03:06:39;95719.44;;;16.60;100.00
3102;BME280;1561;42.666;23.392;2023-09-18T03:09:08;95725.28;;;16.62;100.00
3102;BME280;1561;42.666;23.392;2023-09-18T03:11:41;95726.47;;;16.68;100.00
3102;BME280;1561;42.666;23.392;2023-09-18T03:14:11;95726.03;;;16.55;100.00
3102;BME280;1561;42.666;23.392;2023-09-18T03:16:42;95726.03;;;16.55;100.00
3102;BME280;1561;42.666;23.392;2023-09-18T03:19:10;95725.84;;;16.56;100.00
3102;BME280;1561;42.666;23.392;2023-09-18T03:21:39;95718.56;;;16.52;100.00
3102;BME280;1561;42.666;23.392;2023-09-18T03:24:07;95617.88;;;15.91;100.00
3102;BME280;1561;42.666;23.392;2023-09-18T03:26:41;95722.41;;;16.48;100.00
3102;BME280;1561;42.666;23.392;2023-09-18T03:29:10;95713.69;;;16.48;100.00
3102;BME280;1561;42.666;23.392;2023-09-18T03:31:37;95709.78;;;16.44;100.00
3102;BME280;1561;42.666;23.392;2023-09-18T03:34:05;95717.09;;;16.49;100.00
3102;BME280;1561;42.666;23.392;2023-09-18T03:36:32;95710.53;;;16.55;100.00
3102;BME280;1561;42.666;23.392;2023-09-18T03:39:01;95608.53;;;15.90;100.00
3102;BME280;1561;42.666;23.392;2023-09-18T03:41:29;95709.00;;;16.44;100.00
3102;BME280;1561;42.666;23.392;2023-09-18T03:43:59;95710.50;;;16.37;100.00
3102;BME280;1561;42.666;23.392;2023-09-18T03:46:31;95630.41;;;15.86;100.00
3102;BME280;1561;42.666;23.392;2023-09-18T03:48:59;95701.88;;;16.28;100.00
3102;BME280;1561;42.666;23.392;2023-09-18T03:51:28;95701.00;;;16.37;100.00
3102;BME280;1561;42.666;23.392;2023-09-18T03:53:58;95707.66;;;16.40;100.00
3102;BME280;1561;42.666;23.392;2023-09-18T03:56:27;95687.50;;;16.26;100.00
3102;BME280;1561;42.666;23.392;2023-09-18T03:59:14;95707.91;;;16.37;100.00
3102;BME280;1561;42.666;23.392;2023-09-18T04:01:44;95699.81;;;16.32;100.00
3102;BME280;1561;42.666;23.392;2023-09-18T04:04:17;95704.00;;;16.33;100.00
3102;BME280;1561;42.666;23.392;2023-09-18T04:06:44;95704.13;;;16.41;100.00
3102;BME280;1561;42.666;23.392;2023-09-18T04:09:13;95696.72;;;16.28;100.00
3102;BME280;1561;42.666;23.392;2023-09-18T04:11:41;95709.13;;;16.42;100.00
3102;BME280;1561;42.666;23.392;2023-09-18T04:14:11;95697.00;;;16.25;100.00
3102;BME280;1561;42.666;23.392;2023-09-18T04:16:39;95710.03;;;16.24;100.00
3102;BME280;1561;42.666;23.392;2023-09-18T04:19:10;95698.75;;;16.25;100.00
3102;BME280;1561;42.666;23.392;2023-09-18T04:21:41;95703.53;;;16.20;100.00
3102;BME280;1561;42.666;23.392;2023-09-18T04:24:08;95700.97;;;16.20;100.00
3102;BME280;1561;42.666;23.392;2023-09-18T04:26:37;95703.41;;;16.21;100.00
3102;BME280;1561;42.666;23.392;2023-09-18T04:29:05;95713.84;;;16.20;100.00
3102;BME280;1561;42.666;23.392;2023-09-18T04:31:33;95706.88;;;16.30;100.00
3102;BME280;1561;42.666;23.392;2023-09-18T04:34:00;95708.38;;;16.50;100.00
3102;BME280;1561;42.666;23.392;2023-09-18T04:36:36;95718.72;;;16.68;100.00
3102;BME280;1561;42.666;23.392;2023-09-18T04:39:04;95718.69;;;16.85;100.00
3102;BME280;1561;42.666;23.392;2023-09-18T04:41:34;95708.75;;;17.16;100.00
3102;BME280;1561;42.666;23.392;2023-09-18T04:44:01;95715.00;;;17.31;100.00
3102;BME280;1561;42.666;23.392;2023-09-18T04:46:30;95711.34;;;17.67;100.00
3102;BME280;1561;42.666;23.392;2023-09-18T04:48:57;95636.84;;;17.29;100.00
3102;BME280;1561;42.666;23.392;2023-09-18T04:51:25;95704.28;;;17.77;100.00
3102;BME280;1561;42.666;23.392;2023-09-18T04:54:01;95714.19;;;17.97;100.00
3102;BME280;1561;42.666;23.392;2023-09-18T04:56:34;95713.47;;;18.21;100.00
3102;BME280;1561;42.666;23.392;2023-09-18T04:59:03;95631.06;;;18.18;100.00
3102;BME280;1561;42.666;23.392;2023-09-18T05:01:31;95704.38;;;18.90;100.00
3102;BME280;1561;42.666;23.392;2023-09-18T05:03:57;95710.69;;;19.36;100.00
3102;BME280;1561;42.666;23.392;2023-09-18T05:06:27;95708.91;;;19.12;100.00
3102;BME280;1561;42.666;23.392;2023-09-18T05:08:55;95703.72;;;19.44;100.00
3102;BME280;1561;42.666;23.392;2023-09-18T05:11:24;95704.31;;;19.62;100.00
3102;BME280;1561;42.666;23.392;2023-09-18T05:13:51;95703.47;;;19.70;100.00
3102;BME280;1561;42.666;23.392;2023-09-18T05:16:18;95707.38;;;20.12;100.00
3102;BME280;1561;42.666;23.392;2023-09-18T05:18:48;95703.63;;;20.15;100.00
3102;BME280;1561;42.666;23.392;2023-09-18T05:21:15;95710.47;;;20.08;100.00
3102;BME280;1561;42.666;23.392;2023-09-18T05:23:49;95693.13;;;20.08;100.00
3102;BME280;1561;42.666;23.392;2023-09-18T05:26:20;95725.63;;;20.27;100.00
3102;BME280;1561;42.666;23.392;2023-09-18T05:28:52;95718.69;;;21.69;100.00
3102;BME280;1561;42.666;23.392;2023-09-18T05:31:20;95714.94;;;21.20;100.00
3102;BME280;1561;42.666;23.392;2023-09-18T05:33:50;95715.56;;;21.22;100.00
3102;BME280;1561;42.666;23.392;2023-09-18T05:36:17;95717.94;;;20.86;100.00
3102;BME280;1561;42.666;23.392;2023-09-18T05:38:47;95714.06;;;21.27;100.00
3102;BME280;1561;42.666;23.392;2023-09-18T05:41:15;95713.94;;;21.58;100.00
3102;BME280;1561;42.666;23.392;2023-09-18T05:43:43;95717.06;;;22.11;100.00
3102;BME280;1561;42.666;23.392;2023-09-18T05:46:11;95715.19;;;22.05;100.00
3102;BME280;1561;42.666;23.392;2023-09-18T05:48:42;95716.44;;;22.24;100.00
3102;BME280;1561;42.666;23.392;2023-09-18T05:51:12;95719.81;;;21.89;100.00
3102;BME280;1561;42.666;23.392;2023-09-18T05:53:44;95724.72;;;21.98;100.00
3102;BME280;1561;42.666;23.392;2023-09-18T05:56:10;95727.75;;;22.16;100.00
3102;BME280;1561;42.666;23.392;2023-09-18T05:58:38;95722.94;;;22.34;100.00
3102;BME280;1561;42.666;23.392;2023-09-18T06:01:07;95716.94;;;23.11;100.00
3102;BME280;1561;42.666;23.392;2023-09-18T06:03:36;95715.00;;;23.96;100.00
3102;BME280;1561;42.666;23.392;2023-09-18T06:06:03;95619.53;;;21.72;100.00
3102;BME280;1561;42.666;23.392;2023-09-18T06:08:32;95720.16;;;22.50;100.00
3102;BME280;1561;42.666;23.392;2023-09-18T06:11:03;95712.16;;;22.52;100.00
3102;BME280;1561;42.666;23.392;2023-09-18T06:13:31;95687.91;;;23.14;100.00
3102;BME280;1561;42.666;23.392;2023-09-18T06:15:59;95721.44;;;24.07;100.00
3102;BME280;1561;42.666;23.392;2023-09-18T06:18:36;95729.25;;;24.00;100.00
3102;BME280;1561;42.666;23.392;2023-09-18T06:21:06;95733.50;;;23.74;100.00
3102;BME280;1561;42.666;23.392;2023-09-18T06:23:35;95723.56;;;23.63;100.00
3102;BME280;1561;42.666;23.392;2023-09-18T06:26:03;95719.63;;;24.01;100.00
3102;BME280;1561;42.666;23.392;2023-09-18T06:28:31;95724.44;;;24.57;100.00
3102;BME280;1561;42.666;23.392;2023-09-18T06:31:01;95725.81;;;24.34;100.00
3102;BME280;1561;42.666;23.392;2023-09-18T06:33:33;95724.88;;;24.07;100.00
3102;BME280;1561;42.666;23.392;2023-09-18T06:36:18;95721.94;;;25.87;100.00
3102;BME280;1561;42.666;23.392;2023-09-18T06:38:45;95720.25;;;26.25;100.00
3102;BME280;1561;42.666;23.392;2023-09-18T06:41:13;95723.38;;;25.25;100.00
3102;BME280;1561;42.666;23.392;2023-09-18T06:43:40;95722.84;;;25.36;100.00
3102;BME280;1561;42.666;23.392;2023-09-18T06:46:12;95725.22;;;25.57;100.00
3102;BME280;1561;42.666;23.392;2023-09-18T06:48:43;95714.06;;;26.13;100.00
3102;BME280;1561;42.666;23.392;2023-09-18T06:51:18;95725.81;;;25.78;100.00
3102;BME280;1561;42.666;23.392;2023-09-18T06:53:46;95721.13;;;25.87;100.00
3102;BME280;1561;42.666;23.392;2023-09-18T06:56:13;95698.44;;;25.55;100.00
3102;BME280;1561;42.666;23.392;2023-09-18T06:58:46;95723.31;;;26.16;100.00
3102;BME280;1561;42.666;23.392;2023-09-18T07:01:21;95719.44;;;27.37;93.21
3102;BME280;1561;42.666;23.392;2023-09-18T07:03:50;95713.97;;;26.33;100.00
3102;BME280;1561;42.666;23.392;2023-09-18T07:06:19;95720.19;;;25.62;100.00
3102;BME280;1561;42.666;23.392;2023-09-18T07:08:49;95722.09;;;27.00;97.39
3102;BME280;1561;42.666;23.392;2023-09-18T07:11:20;95705.22;;;25.88;100.00
3102;BME280;1561;42.666;23.392;2023-09-18T07:13:54;95711.03;;;26.60;100.00
3102;BME280;1561;42.666;23.392;2023-09-18T07:16:24;95707.56;;;26.29;100.00
3102;BME280;1561;42.666;23.392;2023-09-18T07:18:52;95716.34;;;27.65;91.64
3102;BME280;1561;42.666;23.392;2023-09-18T07:21:29;95722.22;;;27.11;90.10
3102;BME280;1561;42.666;23.392;2023-09-18T07:24:00;95716.00;;;27.06;91.63
3102;BME280;1561;42.666;23.392;2023-09-18T07:26:29;95709.25;;;28.08;83.01
3102;BME280;1561;42.666;23.392;2023-09-18T07:28:57;95689.44;;;27.27;87.37
3102;BME280;1561;42.666;23.392;2023-09-18T07:31:29;95705.41;;;27.68;85.75
3102;BME280;1561;42.666;23.392;2023-09-18T07:33:57;95725.41;;;26.45;99.86
3102;BME280;1561;42.666;23.392;2023-09-18T07:36:26;95716.94;;;28.45;80.99
3102;BME280;1561;42.666;23.392;2023-09-18T07:38:57;95725.84;;;28.44;76.83
3102;BME280;1561;42.666;23.392;2023-09-18T07:41:24;95661.34;;;27.27;82.91
3102;BME280;1561;42.666;23.392;2023-09-18T07:43:52;95727.09;;;28.06;81.51
3102;BME280;1561;42.666;23.392;2023-09-18T07:46:21;95715.75;;;28.89;73.58
3102;BME280;1561;42.666;23.392;2023-09-18T07:48:49;95720.63;;;29.56;69.88
3102;BME280;1561;42.666;23.392;2023-09-18T07:51:17;95673.19;;;29.79;66.22
3102;BME280;1561;42.666;23.392;2023-09-18T07:53:47;95710.31;;;27.40;82.14
3102;BME280;1561;42.666;23.392;2023-09-18T07:56:18;95560.59;;;26.68;83.43
3102;BME280;1561;42.666;23.392;2023-09-18T07:58:47;95717.06;;;28.32;80.14
3102;BME280;1561;42.666;23.392;2023-09-18T08:01:17;95715.66;;;28.66;75.95
3102;BME280;1561;42.666;23.392;2023-09-18T08:03:46;95706.56;;;29.09;71.90
3102;BME280;1561;42.666;23.392;2023-09-18T08:06:17;95715.13;;;28.46;75.73
3102;BME280;1561;42.666;23.392;2023-09-18T08:08:51;95707.81;;;26.96;86.78
3102;BME280;1561;42.666;23.392;2023-09-18T08:11:20;95700.06;;;27.81;81.62
3102;BME280;1561;42.666;23.392;2023-09-18T08:13:47;95698.91;;;28.49;77.69
3102;BME280;1561;42.666;23.392;2023-09-18T08:16:16;95693.53;;;30.30;63.58
3102;BME280;1561;42.666;23.392;2023-09-18T08:18:46;95701.22;;;29.39;66.39
3102;BME280;1561;42.666;23.392;2023-09-18T08:21:14;95690.97;;;28.67;70.34
3102;BME280;1561;42.666;23.392;2023-09-18T08:23:44;95698.41;;;27.62;76.94
3102;BME280;1561;42.666;23.392;2023-09-18T08:26:13;95703.13;;;29.62;67.09
3102;BME280;1561;42.666;23.392;2023-09-18T08:28:41;95703.84;;;29.27;68.57
3102;BME280;1561;42.666;23.392;2023-09-18T08:31:16;95674.56;;;29.24;66.28
3102;BME280;1561;42.666;23.392;2023-09-18T08:33:46;95701.31;;;28.80;67.46
3102;BME280;1561;42.666;23.392;2023-09-18T08:36:17;95691.50;;;28.57;70.43
3102;BME280;1561;42.666;23.392;2023-09-18T08:38:49;95696.25;;;29.08;70.54
3102;BME280;1561;42.666;23.392;2023-09-18T08:41:18;95540.97;;;29.31;63.28
3102;BME280;1561;42.666;23.392;2023-09-18T08:43:48;95684.63;;;29.38;65.88
3102;BME280;1561;42.666;23.392;2023-09-18T08:46:21;95686.13;;;29.92;61.02
3102;BME280;1561;42.666;23.392;2023-09-18T08:48:51;95677.38;;;28.81;66.38
3102;BME280;1561;42.666;23.392;2023-09-18T08:51:21;95676.97;;;29.49;66.77
3102;BME280;1561;42.666;23.392;2023-09-18T08:53:49;95669.53;;;29.46;67.15
3102;BME280;1561;42.666;23.392;2023-09-18T08:56:20;95678.34;;;29.40;66.20
3102;BME280;1561;42.666;23.392;2023-09-18T08:58:49;95663.38;;;30.54;61.92
3102;BME280;1561;42.666;23.392;2023-09-18T09:01:17;95652.84;;;30.54;60.12
3102;BME280;1561;42.666;23.392;2023-09-18T09:03:45;95664.53;;;30.30;59.86
3102;BME280;1561;42.666;23.392;2023-09-18T09:06:14;95661.84;;;31.63;54.44
3102;BME280;1561;42.666;23.392;2023-09-18T09:08:42;95659.19;;;30.02;61.24
3102;BME280;1561;42.666;23.392;2023-09-18T09:11:09;95657.78;;;31.23;55.93
3102;BME280;1561;42.666;23.392;2023-09-18T09:13:39;95674.81;;;30.43;56.72
3102;BME280;1561;42.666;23.392;2023-09-18T09:16:13;95665.56;;;30.06;60.08
3102;BME280;1561;42.666;23.392;2023-09-18T09:18:49;95662.22;;;30.61;56.99
3102;BME280;1561;42.666;23.392;2023-09-18T09:21:18;95660.06;;;31.03;55.34
3102;BME280;1561;42.666;23.392;2023-09-18T09:23:46;95662.03;;;31.24;53.54
3102;BME280;1561;42.666;23.392;2023-09-18T09:26:18;95651.97;;;30.76;53.38
3102;BME280;1561;42.666;23.392;2023-09-18T09:28:48;95628.44;;;28.80;63.19
3102;BME280;1561;42.666;23.392;2023-09-18T09:31:27;95655.44;;;29.40;61.33
3102;BME280;1561;42.666;23.392;2023-09-18T09:33:57;95647.06;;;29.89;58.42
3102;BME280;1561;42.666;23.392;2023-09-18T09:36:26;95647.66;;;30.59;54.11
3102;BME280;1561;42.666;23.392;2023-09-18T09:38:58;95660.78;;;28.22;63.63
3102;BME280;1561;42.666;23.392;2023-09-18T09:41:28;95644.44;;;29.20;62.04
3102;BME280;1561;42.666;23.392;2023-09-18T09:43:59;95650.16;;;29.52;57.91
3102;BME280;1561;42.666;23.392;2023-09-18T09:46:32;95643.50;;;29.84;56.88
3102;BME280;1561;42.666;23.392;2023-09-18T09:49:06;95647.25;;;30.11;54.81
3102;BME280;1561;42.666;23.392;2023-09-18T09:51:36;95633.91;;;30.57;52.02
3102;BME280;1561;42.666;23.392;2023-09-18T09:54:05;95643.13;;;28.29;62.57
3102;BME280;1561;42.666;23.392;2023-09-18T09:56:45;95637.34;;;27.48;70.39
3102;BME280;1561;42.666;23.392;2023-09-18T09:59:19;95631.28;;;28.67;62.90
3102;BME280;1561;42.666;23.392;2023-09-18T10:01:48;95544.38;;;28.74;61.45
3102;BME280;1561;42.666;23.392;2023-09-18T10:04:19;95625.03;;;30.63;54.21
3102;BME280;1561;42.666;23.392;2023-09-18T10:06:51;95594.66;;;28.66;61.17
3102;BME280;1561;42.666;23.392;2023-09-18T10:09:24;95622.63;;;26.74;74.61
3102;BME280;1561;42.666;23.392;2023-09-18T10:11:56;95627.34;;;26.21;79.89
3102;BME280;1561;42.666;23.392;2023-09-18T10:14:31;95623.94;;;26.21;79.42
3102;BME280;1561;42.666;23.392;2023-09-18T10:17:08;95618.50;;;26.22;79.89
3102;BME280;1561;42.666;23.392;2023-09-18T10:19:45;95600.53;;;28.79;63.46
3102;BME280;1561;42.666;23.392;2023-09-18T10:22:21;95577.38;;;29.57;55.64
3102;BME280;1561;42.666;23.392;2023-09-18T10:24:56;95619.94;;;29.31;56.83
3102;BME280;1561;42.666;23.392;2023-09-18T10:27:27;95587.59;;;30.33;52.43
3102;BME280;1561;42.666;23.392;2023-09-18T10:30:02;95601.59;;;29.82;53.55
3102;BME280;1561;42.666;23.392;2023-09-18T10:32:33;95611.84;;;28.39;60.11
3102;BME280;1561;42.666;23.392;2023-09-18T10:35:05;95603.16;;;26.63;68.96
3102;BME280;1561;42.666;23.392;2023-09-18T10:37:33;95603.50;;;27.16;68.54
3102;BME280;1561;42.666;23.392;2023-09-18T10:40:10;95601.19;;;28.04;62.69
3102;BME280;1561;42.666;23.392;2023-09-18T10:42:40;95587.25;;;27.07;67.39
3102;BME280;1561;42.666;23.392;2023-09-18T10:45:10;95595.56;;;28.48;61.94
3102;BME280;1561;42.666;23.392;2023-09-18T10:47:47;95518.19;;;28.67;58.67
3102;BME280;1561;42.666;23.392;2023-09-18T10:50:27;95574.91;;;29.79;55.54
3102;BME280;1561;42.666;23.392;2023-09-18T10:52:57;95565.94;;;30.75;50.00
3102;BME280;1561;42.666;23.392;2023-09-18T10:55:25;95584.53;;;29.85;52.65
3102;BME280;1561;42.666;23.392;2023-09-18T10:57:55;95573.38;;;29.08;55.68
3102;BME280;1561;42.666;23.392;2023-09-18T11:00:32;95576.06;;;28.79;56.96
3102;BME280;1561;42.666;23.392;2023-09-18T11:03:13;95565.81;;;29.12;55.88
3102;BME280;1561;42.666;23.392;2023-09-18T11:05:44;95562.97;;;29.13;54.65
3102;BME280;1561;42.666;23.392;2023-09-18T11:08:27;95568.91;;;29.20;53.81
3102;BME280;1561;42.666;23.392;2023-09-18T11:11:00;95560.53;;;29.58;52.89
3102;BME280;1561;42.666;23.392;2023-09-18T11:13:31;95560.88;;;29.62;52.25
3102;BME280;1561;42.666;23.392;2023-09-18T11:16:15;95556.84;;;28.37;58.27
3102;BME280;1561;42.666;23.392;2023-09-18T11:18:42;95558.72;;;29.01;54.63
3102;BME280;1561;42.666;23.392;2023-09-18T11:21:11;95565.19;;;28.64;56.54
3102;BME280;1561;42.666;23.392;2023-09-18T11:23:39;95552.59;;;28.66;56.53
3102;BME280;1561;42.666;23.392;2023-09-18T11:26:15;95531.91;;;28.69;56.51
3102;BME280;1561;42.666;23.392;2023-09-18T11:28:48;95527.94;;;28.90;55.92
3102;BME280;1561;42.666;23.392;2023-09-18T11:31:17;95548.25;;;28.60;57.97
3102;BME280;1561;42.666;23.392;2023-09-18T11:33:47;95539.94;;;28.33;56.80
3102;BME280;1561;42.666;23.392;2023-09-18T11:36:29;95531.34;;;27.67;60.29
3102;BME280;1561;42.666;23.392;2023-09-18T11:39:02;95527.75;;;27.62;62.15
3102;BME280;1561;42.666;23.392;2023-09-18T11:41:35;95541.59;;;27.51;62.75
3102;BME280;1561;42.666;23.392;2023-09-18T11:44:32;95531.34;;;27.67;60.93
3102;BME280;1561;42.666;23.392;2023-09-18T11:47:07;95515.56;;;28.15;57.90
3102;BME280;1561;42.666;23.392;2023-09-18T11:49:38;95531.53;;;28.13;59.10
3102;BME280;1561;42.666;23.392;2023-09-18T11:52:10;95510.84;;;27.40;62.86
3102;BME280;1561;42.666;23.392;2023-09-18T11:54:40;95523.72;;;27.95;61.69
3102;BME280;1561;42.666;23.392;2023-09-18T11:57:09;95511.78;;;28.22;58.87
3102;BME280;1561;42.666;23.392;2023-09-18T11:59:40;95416.69;;;26.96;62.13
3102;BME280;1561;42.666;23.392;2023-09-18T12:02:10;95494.88;;;26.81;67.27
3102;BME280;1561;42.666;23.392;2023-09-18T12:04:46;95512.28;;;26.26;75.51
3102;BME280;1561;42.666;23.392;2023-09-18T12:07:14;95512.22;;;26.33;77.44
3102;BME280;1561;42.666;23.392;2023-09-18T12:09:45;95511.47;;;25.51;83.62
3102;BME280;1561;42.666;23.392;2023-09-18T12:12:15;95520.66;;;25.66;84.34
3102;BME280;1561;42.666;23.392;2023-09-18T12:14:43;95514.91;;;25.45;83.79
3102;BME280;1561;42.666;23.392;2023-09-18T12:17:15;95513.28;;;25.88;82.08
3102;BME280;1561;42.666;23.392;2023-09-18T12:19:53;95509.91;;;26.18;79.32
3102;BME280;1561;42.666;23.392;2023-09-18T12:22:27;95518.75;;;25.93;78.92
3102;BME280;1561;42.666;23.392;2023-09-18T12:25:08;95494.31;;;26.30;78.08
3102;BME280;1561;42.666;23.392;2023-09-18T12:27:37;95505.09;;;26.40;77.97
3102;BME280;1561;42.666;23.392;2023-09-18T12:30:06;95499.91;;;26.33;76.05
3102;BME280;1561;42.666;23.392;2023-09-18T12:32:37;95514.94;;;26.20;79.96
3102;BME280;1561;42.666;23.392;2023-09-18T12:35:07;95502.31;;;26.66;75.92
3102;BME280;1561;42.666;23.392;2023-09-18T12:37:39;95477.81;;;25.92;79.56
3102;BME280;1561;42.666;23.392;2023-09-18T12:40:20;95493.28;;;26.31;78.91
3102;BME280;1561;42.666;23.392;2023-09-18T12:42:50;95499.25;;;26.44;78.75
3102;BME280;1561;42.666;23.392;2023-09-18T12:45:27;95504.59;;;26.80;74.63
3102;BME280;1561;42.666;23.392;2023-09-18T12:48:00;95495.97;;;26.24;76.88
3102;BME280;1561;42.666;23.392;2023-09-18T12:50:37;95495.97;;;26.24;77.84
3102;BME280;1561;42.666;23.392;2023-09-18T12:53:11;95480.44;;;26.23;79.09
3102;BME280;1561;42.666;23.392;2023-09-18T12:55:45;95493.34;;;25.93;79.05
3102;BME280;1561;42.666;23.392;2023-09-18T12:58:21;95488.78;;;26.13;78.78
3102;BME280;1561;42.666;23.392;2023-09-18T13:00:49;95449.34;;;25.77;79.88
3102;BME280;1561;42.666;23.392;2023-09-18T13:03:23;95469.56;;;25.57;81.58
3102;BME280;1561;42.666;23.392;2023-09-18T13:06:07;95479.88;;;25.83;79.11
3102;BME280;1561;42.666;23.392;2023-09-18T13:08:40;95401.16;;;25.10;80.16
3102;BME280;1561;42.666;23.392;2023-09-18T13:11:10;95479.34;;;25.68;79.52
3102;BME280;1561;42.666;23.392;2023-09-18T13:13:43;95482.88;;;25.49;79.90
3102;BME280;1561;42.666;23.392;2023-09-18T13:16:14;95482.91;;;25.43;80.73
3102;BME280;1561;42.666;23.392;2023-09-18T13:18:46;95490.59;;;25.38;82.54
3102;BME280;1561;42.666;23.392;2023-09-18T13:21:16;95487.81;;;25.70;78.49
3102;BME280;1561;42.666;23.392;2023-09-18T13:23:44;95471.41;;;26.19;78.76